sensor_id;sensor_type;location;lat;lon;timestamp;pressure;altitude;pressure_sealevel;temperature;humidity
13612;BME280;6877;51.436;6.774;2023-06-04T00:02:22;101568.31;;;12.21;45.35
13612;BME280;6877;51.436;6.774;2023-06-04T00:04:49;101556.88;;;12.25;45.15
13612;BME280;6877;51.436;6.774;2023-06-04T00:07:15;101556.78;;;12.33;45.21
13612;BME280;6877;51.436;6.774;2023-06-04T00:09:42;101556.78;;;12.33;44.87
13612;BME280;6877;51.436;6.774;2023-06-04T00:12:09;101555.09;;;12.26;45.07
13612;BME280;6877;51.436;6.774;2023-06-04T00:14:35;101556.00;;;12.25;45.29
13612;BME280;6877;51.436;6.774;2023-06-04T00:17:01;101561.25;;;12.26;45.47
13612;BME280;6877;51.436;6.774;2023-06-04T00:19:28;101556.88;;;12.25;45.49
13612;BME280;6877;51.436;6.774;2023-06-04T00:21:54;101557.75;;;12.23;45.62
13612;BME280;6877;51.436;6.774;2023-06-04T00:24:21;101542.16;;;12.14;46.18
13612;BME280;6877;51.436;6.774;2023-06-04T00:26:48;101545.75;;;12.05;46.26
13612;BME280;6877;51.436;6.774;2023-06-04T00:29:14;101547.63;;;11.94;46.62
13612;BME280;6877;51.436;6.774;2023-06-04T00:31:41;101559.97;;;11.86;46.75
13612;BME280;6877;51.436;6.774;2023-06-04T00:34:08;101553.84;;;11.83;47.18
13612;BME280;6877;51.436;6.774;2023-06-04T00:36:34;101556.50;;;11.80;47.09
13612;BME280;6877;51.436;6.774;2023-06-04T00:39:01;101554.75;;;11.79;47.41
13612;BME280;6877;51.436;6.774;2023-06-04T00:41:28;101557.41;;;11.75;47.72
13612;BME280;6877;51.436;6.774;2023-06-04T00:43:54;101554.84;;;11.70;48.11
13612;BME280;6877;51.436;6.774;2023-06-04T00:46:27;101560.97;;;11.71;48.41
13612;BME280;6877;51.436;6.774;2023-06-04T00:48:54;101553.09;;;11.69;49.14
13612;BME280;6877;51.436;6.774;2023-06-04T00:51:21;101555.75;;;11.68;49.74
13612;BME280;6877;51.436;6.774;2023-06-04T00:53:49;101559.28;;;11.67;50.27
13612;BME280;6877;51.436;6.774;2023-06-04T00:56:16;101551.44;;;11.62;50.76
13612;BME280;6877;51.436;6.774;2023-06-04T00:58:44;101544.50;;;11.58;51.44
13612;BME280;6877;51.436;6.774;2023-06-04T01:03:51;101549.81;;;11.47;52.58
13612;BME280;6877;51.436;6.774;2023-06-04T01:06:21;101544.56;;;11.49;53.13
13612;BME280;6877;51.436;6.774;2023-06-04T01:08:57;101548.13;;;11.45;53.04
13612;BME280;6877;51.436;6.774;2023-06-04T01:13:59;101546.38;;;11.41;54.03
13612;BME280;6877;51.436;6.774;2023-06-04T01:16:27;101548.19;;;11.35;53.99
13612;BME280;6877;51.436;6.774;2023-06-04T01:18:58;101550.88;;;11.28;54.75
13612;BME280;6877;51.436;6.774;2023-06-04T01:21:29;101557.94;;;11.20;55.09
13612;BME280;6877;51.436;6.774;2023-06-04T01:23:58;101558.00;;;11.13;55.62
13612;BME280;6877;51.436;6.774;2023-06-04T01:26:30;101557.16;;;11.10;56.25
13612;BME280;6877;51.436;6.774;2023-06-04T01:28:58;101557.97;;;11.15;56.77
13612;BME280;6877;51.436;6.774;2023-06-04T01:31:25;101553.66;;;11.11;56.88
13612;BME280;6877;51.436;6.774;2023-06-04T01:33:53;101550.19;;;11.07;57.49
13612;BME280;6877;51.436;6.774;2023-06-04T01:36:20;101550.19;;;11.06;58.01
13612;BME280;6877;51.436;6.774;2023-06-04T01:38:46;101546.69;;;11.10;58.87
13612;BME280;6877;51.436;6.774;2023-06-04T01:41:13;101554.47;;;11.19;60.02
13612;BME280;6877;51.436;6.774;2023-06-04T01:43:40;101543.94;;;11.24;60.25
13612;BME280;6877;51.436;6.774;2023-06-04T01:46:07;101547.41;;;11.29;60.53
13612;BME280;6877;51.436;6.774;2023-06-04T01:48:33;101550.84;;;11.31;61.09
13612;BME280;6877;51.436;6.774;2023-06-04T01:51:00;101552.59;;;11.32;61.67
13612;BME280;6877;51.436;6.774;2023-06-04T01:53:27;101547.34;;;11.33;61.99
13612;BME280;6877;51.436;6.774;2023-06-04T01:55:54;101543.81;;;11.34;62.36
13612;BME280;6877;51.436;6.774;2023-06-04T01:58:20;101548.22;;;11.32;62.48
13612;BME280;6877;51.436;6.774;2023-06-04T02:00:53;101543.84;;;11.33;63.05
13612;BME280;6877;51.436;6.774;2023-06-04T02:03:22;101551.69;;;11.36;63.61
13612;BME280;6877;51.436;6.774;2023-06-04T02:05:51;101549.06;;;11.34;63.32
13612;BME280;6877;51.436;6.774;2023-06-04T02:08:18;101546.50;;;11.30;63.36
13612;BME280;6877;51.436;6.774;2023-06-04T02:10:48;101544.81;;;11.26;63.95
13612;BME280;6877;51.436;6.774;2023-06-04T02:13:15;101552.66;;;11.26;64.42
13612;BME280;6877;51.436;6.774;2023-06-04T02:15:42;101554.41;;;11.22;64.52
13612;BME280;6877;51.436;6.774;2023-06-04T02:18:20;101551.84;;;11.19;64.59
13612;BME280;6877;51.436;6.774;2023-06-04T02:20:51;101551.91;;;11.10;65.05
13612;BME280;6877;51.436;6.774;2023-06-04T02:23:22;101553.69;;;11.05;65.38
13612;BME280;6877;51.436;6.774;2023-06-04T02:25:49;101548.50;;;11.00;65.74
13612;BME280;6877;51.436;6.774;2023-06-04T02:28:16;101551.97;;;11.01;65.96
13612;BME280;6877;51.436;6.774;2023-06-04T02:30:44;101551.97;;;11.01;66.15
13612;BME280;6877;51.436;6.774;2023-06-04T02:33:12;101561.63;;;10.96;66.22
13612;BME280;6877;51.436;6.774;2023-06-04T02:35:39;101555.50;;;10.94;66.39
13612;BME280;6877;51.436;6.774;2023-06-04T02:38:07;101555.53;;;10.87;66.57
13612;BME280;6877;51.436;6.774;2023-06-04T02:40:34;101549.44;;;10.90;67.48
13612;BME280;6877;51.436;6.774;2023-06-04T02:43:00;101554.66;;;10.92;67.25
13612;BME280;6877;51.436;6.774;2023-06-04T02:45:27;101552.94;;;10.89;67.46
13612;BME280;6877;51.436;6.774;2023-06-04T02:47:55;101559.94;;;10.88;67.43
13612;BME280;6877;51.436;6.774;2023-06-04T02:50:21;101552.97;;;10.86;67.90
13612;BME280;6877;51.436;6.774;2023-06-04T02:52:48;101557.34;;;10.82;68.03
13612;BME280;6877;51.436;6.774;2023-06-04T02:55:14;101559.13;;;10.77;68.18
13612;BME280;6877;51.436;6.774;2023-06-04T02:57:43;101559.16;;;10.73;68.69
13612;BME280;6877;51.436;6.774;2023-06-04T03:00:11;101567.94;;;10.64;69.17
13612;BME280;6877;51.436;6.774;2023-06-04T03:02:45;101566.22;;;10.57;69.22
13612;BME280;6877;51.436;6.774;2023-06-04T03:05:14;101568.91;;;10.48;69.36
13612;BME280;6877;51.436;6.774;2023-06-04T03:07:41;101575.06;;;10.37;69.93
13612;BME280;6877;51.436;6.774;2023-06-04T03:10:10;101562.88;;;10.27;70.48
13612;BME280;6877;51.436;6.774;2023-06-04T03:12:37;101569.88;;;10.16;71.52
13612;BME280;6877;51.436;6.774;2023-06-04T03:15:04;101562.03;;;10.10;72.25
13612;BME280;6877;51.436;6.774;2023-06-04T03:17:31;101570.78;;;10.09;72.58
13612;BME280;6877;51.436;6.774;2023-06-04T03:19:58;101570.78;;;10.06;73.35
13612;BME280;6877;51.436;6.774;2023-06-04T03:22:25;101560.34;;;10.03;73.58
13612;BME280;6877;51.436;6.774;2023-06-04T03:24:51;101558.59;;;10.03;74.09
13612;BME280;6877;51.436;6.774;2023-06-04T03:27:19;101564.66;;;10.07;74.41
13612;BME280;6877;51.436;6.774;2023-06-04T03:29:46;101563.78;;;10.08;74.31
13612;BME280;6877;51.436;6.774;2023-06-04T03:32:14;101561.19;;;10.06;74.55
13612;BME280;6877;51.436;6.774;2023-06-04T03:34:42;101567.28;;;10.04;74.88
13612;BME280;6877;51.436;6.774;2023-06-04T03:37:09;101573.41;;;10.03;74.77
13612;BME280;6877;51.436;6.774;2023-06-04T03:39:36;101571.66;;;9.98;74.88
13612;BME280;6877;51.436;6.774;2023-06-04T03:42:03;101562.97;;;9.96;75.34
13612;BME280;6877;51.436;6.774;2023-06-04T03:44:29;101570.81;;;9.95;75.30
13612;BME280;6877;51.436;6.774;2023-06-04T03:46:56;101565.56;;;10.00;75.76
13612;BME280;6877;51.436;6.774;2023-06-04T03:49:22;101563.81;;;10.03;75.48
13612;BME280;6877;51.436;6.774;2023-06-04T03:51:49;101559.44;;;10.07;75.57
13612;BME280;6877;51.436;6.774;2023-06-04T03:54:15;101562.03;;;10.08;75.48
13612;BME280;6877;51.436;6.774;2023-06-04T03:56:46;101566.38;;;10.14;75.22
13612;BME280;6877;51.436;6.774;2023-06-04T03:59:13;101567.22;;;10.20;74.96
13612;BME280;6877;51.436;6.774;2023-06-04T04:01:39;101567.22;;;10.30;74.94
13612;BME280;6877;51.436;6.774;2023-06-04T04:04:06;101562.81;;;10.36;74.48
13612;BME280;6877;51.436;6.774;2023-06-04T04:06:33;101568.91;;;10.44;74.08
13612;BME280;6877;51.436;6.774;2023-06-04T04:08:59;101568.00;;;10.50;73.67
13612;BME280;6877;51.436;6.774;2023-06-04T04:11:26;101565.34;;;10.55;73.85
13612;BME280;6877;51.436;6.774;2023-06-04T04:13:53;101566.16;;;10.69;73.29
13612;BME280;6877;51.436;6.774;2023-06-04T04:16:19;101560.88;;;10.77;72.85
13612;BME280;6877;51.436;6.774;2023-06-04T04:18:46;101554.66;;;10.92;72.55
13612;BME280;6877;51.436;6.774;2023-06-04T04:21:13;101555.47;;;11.00;72.15
13612;BME280;6877;51.436;6.774;2023-06-04T04:23:39;101563.25;;;11.09;71.75
13612;BME280;6877;51.436;6.774;2023-06-04T04:26:07;101565.84;;;11.17;71.58
13612;BME280;6877;51.436;6.774;2023-06-04T04:28:37;101562.25;;;11.25;71.40
13612;BME280;6877;51.436;6.774;2023-06-04T04:31:04;101564.78;;;11.36;70.90
13612;BME280;6877;51.436;6.774;2023-06-04T04:33:35;101559.44;;;11.48;70.26
13612;BME280;6877;51.436;6.774;2023-06-04T04:36:06;101570.78;;;11.49;70.24
13612;BME280;6877;51.436;6.774;2023-06-04T04:38:38;101562.03;;;11.50;70.38
13612;BME280;6877;51.436;6.774;2023-06-04T04:41:06;101561.16;;;11.49;70.14
13612;BME280;6877;51.436;6.774;2023-06-04T04:43:35;101566.38;;;11.52;70.20
13612;BME280;6877;51.436;6.774;2023-06-04T04:46:02;101565.53;;;11.52;70.08
13612;BME280;6877;51.436;6.774;2023-06-04T04:48:28;101573.31;;;11.56;70.01
13612;BME280;6877;51.436;6.774;2023-06-04T04:50:55;101567.16;;;11.62;69.69
13612;BME280;6877;51.436;6.774;2023-06-04T04:53:26;101576.59;;;11.80;69.07
13612;BME280;6877;51.436;6.774;2023-06-04T04:55:59;101578.31;;;11.87;68.59
13612;BME280;6877;51.436;6.774;2023-06-04T04:58:25;101580.78;;;11.98;68.17
13612;BME280;6877;51.436;6.774;2023-06-04T05:00:52;101581.59;;;12.08;67.92
13612;BME280;6877;51.436;6.774;2023-06-04T05:03:18;101573.66;;;12.12;67.52
13612;BME280;6877;51.436;6.774;2023-06-04T05:05:45;101573.66;;;12.14;67.36
13612;BME280;6877;51.436;6.774;2023-06-04T05:08:13;101575.34;;;12.16;67.24
13612;BME280;6877;51.436;6.774;2023-06-04T05:10:40;101577.06;;;12.20;66.86
13612;BME280;6877;51.436;6.774;2023-06-04T05:13:07;101586.66;;;12.20;66.86
13612;BME280;6877;51.436;6.774;2023-06-04T05:15:33;101572.72;;;12.16;66.36
13612;BME280;6877;51.436;6.774;2023-06-04T05:18:00;101573.63;;;12.15;66.64
13612;BME280;6877;51.436;6.774;2023-06-04T05:20:29;101571.81;;;12.20;66.12
13612;BME280;6877;51.436;6.774;2023-06-04T05:22:56;101569.91;;;12.32;65.69
13612;BME280;6877;51.436;6.774;2023-06-04T05:25:23;101580.25;;;12.44;65.13
13612;BME280;6877;51.436;6.774;2023-06-04T05:27:49;101574.88;;;12.53;64.12
13612;BME280;6877;51.436;6.774;2023-06-04T05:30:16;101586.13;;;12.63;63.61
13612;BME280;6877;51.436;6.774;2023-06-04T05:32:43;101585.09;;;12.74;62.99
13612;BME280;6877;51.436;6.774;2023-06-04T05:35:10;101591.91;;;12.88;61.87
13612;BME280;6877;51.436;6.774;2023-06-04T05:37:37;101585.53;;;13.04;60.64
13612;BME280;6877;51.436;6.774;2023-06-04T05:40:06;101588.09;;;13.07;60.61
13612;BME280;6877;51.436;6.774;2023-06-04T05:42:33;101592.38;;;13.14;60.77
13612;BME280;6877;51.436;6.774;2023-06-04T05:44:59;101587.19;;;13.10;60.75
13612;BME280;6877;51.436;6.774;2023-06-04T05:47:27;101584.69;;;13.02;60.56
13612;BME280;6877;51.436;6.774;2023-06-04T05:49:55;101589.97;;;13.02;61.10
13612;BME280;6877;51.436;6.774;2023-06-04T05:52:21;101590.78;;;13.04;61.35
13612;BME280;6877;51.436;6.774;2023-06-04T05:54:48;101583.81;;;13.02;61.94
13612;BME280;6877;51.436;6.774;2023-06-04T05:57:15;101595.16;;;13.05;61.75
13612;BME280;6877;51.436;6.774;2023-06-04T05:59:41;101591.44;;;13.18;60.28
13612;BME280;6877;51.436;6.774;2023-06-04T06:02:08;101596.50;;;13.32;60.29
13612;BME280;6877;51.436;6.774;2023-06-04T06:04:35;101595.19;;;13.58;58.55
13612;BME280;6877;51.436;6.774;2023-06-04T06:07:04;101600.94;;;13.80;57.06
13612;BME280;6877;51.436;6.774;2023-06-04T06:09:31;101606.81;;;13.94;55.79
13612;BME280;6877;51.436;6.774;2023-06-04T06:11:58;101602.13;;;14.10;55.15
13612;BME280;6877;51.436;6.774;2023-06-04T06:14:24;101601.84;;;14.24;54.37
13612;BME280;6877;51.436;6.774;2023-06-04T06:16:51;101602.59;;;14.30;53.76
13612;BME280;6877;51.436;6.774;2023-06-04T06:19:17;101613.94;;;14.34;53.27
13612;BME280;6877;51.436;6.774;2023-06-04T06:21:49;101614.81;;;14.34;52.86
13612;BME280;6877;51.436;6.774;2023-06-04T06:24:15;101609.56;;;14.34;52.73
13612;BME280;6877;51.436;6.774;2023-06-04T06:26:43;101613.88;;;14.37;53.15
13612;BME280;6877;51.436;6.774;2023-06-04T06:29:10;101619.00;;;14.43;53.28
13612;BME280;6877;51.436;6.774;2023-06-04T06:31:41;101611.78;;;14.54;52.94
13612;BME280;6877;51.436;6.774;2023-06-04T06:34:08;101610.47;;;14.75;51.75
13612;BME280;6877;51.436;6.774;2023-06-04T06:36:39;101612.09;;;15.20;51.22
13612;BME280;6877;51.436;6.774;2023-06-04T06:39:05;101620.69;;;15.96;48.29
13612;BME280;6877;51.436;6.774;2023-06-04T06:41:33;101626.75;;;16.62;46.76
13612;BME280;6877;51.436;6.774;2023-06-04T06:44:04;101627.34;;;16.72;45.70
13612;BME280;6877;51.436;6.774;2023-06-04T06:46:31;101627.56;;;16.64;45.51
13612;BME280;6877;51.436;6.774;2023-06-04T06:48:57;101628.53;;;16.62;45.09
13612;BME280;6877;51.436;6.774;2023-06-04T06:51:24;101621.81;;;16.81;44.93
13612;BME280;6877;51.436;6.774;2023-06-04T06:53:50;101626.72;;;16.94;44.33
13612;BME280;6877;51.436;6.774;2023-06-04T06:56:20;101631.72;;;17.03;43.75
13612;BME280;6877;51.436;6.774;2023-06-04T06:58:46;101632.72;;;16.99;42.94
13612;BME280;6877;51.436;6.774;2023-06-04T07:01:13;101637.25;;;16.95;43.21
13612;BME280;6877;51.436;6.774;2023-06-04T07:03:39;101641.00;;;17.43;43.03
13612;BME280;6877;51.436;6.774;2023-06-04T07:06:06;101642.59;;;17.75;42.38
13612;BME280;6877;51.436;6.774;2023-06-04T07:08:33;101635.84;;;17.66;41.82
13612;BME280;6877;51.436;6.774;2023-06-04T07:11:01;101640.34;;;17.36;42.17
13612;BME280;6877;51.436;6.774;2023-06-04T07:13:28;101638.34;;;17.16;42.77
13612;BME280;6877;51.436;6.774;2023-06-04T07:15:54;101645.75;;;17.05;43.24
13612;BME280;6877;51.436;6.774;2023-06-04T07:18:21;101638.84;;;17.01;43.10
13612;BME280;6877;51.436;6.774;2023-06-04T07:20:47;101645.84;;;17.02;43.33
13612;BME280;6877;51.436;6.774;2023-06-04T07:23:19;101648.00;;;17.17;43.46
13612;BME280;6877;51.436;6.774;2023-06-04T07:25:46;101652.81;;;17.59;42.26
13612;BME280;6877;51.436;6.774;2023-06-04T07:28:12;101650.00;;;17.92;41.34
13612;BME280;6877;51.436;6.774;2023-06-04T07:30:45;101661.75;;;18.08;40.20
13612;BME280;6877;51.436;6.774;2023-06-04T07:33:17;101656.16;;;18.41;40.00
13612;BME280;6877;51.436;6.774;2023-06-04T07:35:49;101646.31;;;18.91;39.28
13612;BME280;6877;51.436;6.774;2023-06-04T07:38:16;101654.75;;;19.25;38.64
13612;BME280;6877;51.436;6.774;2023-06-04T07:40:45;101650.38;;;19.24;37.85
13612;BME280;6877;51.436;6.774;2023-06-04T07:43:12;101653.63;;;19.08;38.67
13612;BME280;6877;51.436;6.774;2023-06-04T07:45:43;101658.84;;;19.54;38.26
13612;BME280;6877;51.436;6.774;2023-06-04T07:48:10;101653.94;;;19.87;37.55
13612;BME280;6877;51.436;6.774;2023-06-04T07:50:42;101650.41;;;20.86;36.77
13612;BME280;6877;51.436;6.774;2023-06-04T07:53:14;101662.97;;;22.26;33.62
13612;BME280;6877;51.436;6.774;2023-06-04T07:55:45;101659.25;;;22.46;31.95
13612;BME280;6877;51.436;6.774;2023-06-04T07:58:13;101659.38;;;22.91;31.17
13612;BME280;6877;51.436;6.774;2023-06-04T08:00:40;101666.03;;;24.22;29.26
13612;BME280;6877;51.436;6.774;2023-06-04T08:03:11;101658.88;;;24.80;27.35
13612;BME280;6877;51.436;6.774;2023-06-04T08:05:38;101654.91;;;25.14;27.26
13612;BME280;6877;51.436;6.774;2023-06-04T08:08:04;101665.69;;;25.67;26.27
13612;BME280;6877;51.436;6.774;2023-06-04T08:10:31;101664.06;;;26.30;26.09
13612;BME280;6877;51.436;6.774;2023-06-04T08:13:03;101667.38;;;27.33;24.49
13612;BME280;6877;51.436;6.774;2023-06-04T08:15:29;101666.00;;;28.22;22.97
13612;BME280;6877;51.436;6.774;2023-06-04T08:17:56;101669.16;;;30.33;20.83
13612;BME280;6877;51.436;6.774;2023-06-04T08:20:24;101677.47;;;31.99;18.89
13612;BME280;6877;51.436;6.774;2023-06-04T08:22:56;101675.69;;;33.20;17.57
13612;BME280;6877;51.436;6.774;2023-06-04T08:25:25;101687.94;;;34.30;16.19
13612;BME280;6877;51.436;6.774;2023-06-04T08:27:52;101689.22;;;35.28;15.19
13612;BME280;6877;51.436;6.774;2023-06-04T08:30:19;101696.53;;;35.52;14.56
13612;BME280;6877;51.436;6.774;2023-06-04T08:32:45;101693.34;;;35.90;14.19
13612;BME280;6877;51.436;6.774;2023-06-04T08:35:11;101698.38;;;36.34;13.84
13612;BME280;6877;51.436;6.774;2023-06-04T08:37:39;101704.63;;;37.75;13.31
13612;BME280;6877;51.436;6.774;2023-06-04T08:40:06;101696.09;;;37.55;13.16
13612;BME280;6877;51.436;6.774;2023-06-04T08:42:42;101697.91;;;37.63;12.68
13612;BME280;6877;51.436;6.774;2023-06-04T08:45:12;101699.72;;;38.98;11.74
13612;BME280;6877;51.436;6.774;2023-06-04T08:47:49;101693.97;;;38.33;11.49
13612;BME280;6877;51.436;6.774;2023-06-04T08:50:23;101698.09;;;39.25;11.65
13612;BME280;6877;51.436;6.774;2023-06-04T08:52:55;101702.75;;;40.51;10.79
13612;BME280;6877;51.436;6.774;2023-06-04T08:55:27;101704.31;;;41.29;10.39
13612;BME280;6877;51.436;6.774;2023-06-04T08:57:54;101708.84;;;40.95;10.44
13612;BME280;6877;51.436;6.774;2023-06-04T09:00:20;101703.31;;;40.12;10.30
13612;BME280;6877;51.436;6.774;2023-06-04T09:02:50;101698.91;;;39.40;10.88
13612;BME280;6877;51.436;6.774;2023-06-04T09:05:20;101703.13;;;40.14;10.62
13612;BME280;6877;51.436;6.774;2023-06-04T09:07:55;101705.06;;;39.42;10.41
13612;BME280;6877;51.436;6.774;2023-06-04T09:10:29;101706.88;;;38.99;10.67
13612;BME280;6877;51.436;6.774;2023-06-04T09:13:01;101697.22;;;38.52;10.83
13612;BME280;6877;51.436;6.774;2023-06-04T09:15:29;101699.41;;;36.33;11.80
13612;BME280;6877;51.436;6.774;2023-06-04T09:17:56;101691.91;;;36.35;12.33
13612;BME280;6877;51.436;6.774;2023-06-04T09:20:23;101686.34;;;37.76;11.74
13612;BME280;6877;51.436;6.774;2023-06-04T09:22:50;101699.91;;;38.07;11.01
13612;BME280;6877;51.436;6.774;2023-06-04T09:25:22;101695.94;;;38.84;10.16
13612;BME280;6877;51.436;6.774;2023-06-04T09:27:49;101699.81;;;38.75;10.11
13612;BME280;6877;51.436;6.774;2023-06-04T09:30:22;101701.69;;;38.74;10.18
13612;BME280;6877;51.436;6.774;2023-06-04T09:32:49;101703.59;;;38.88;9.72
13612;BME280;6877;51.436;6.774;2023-06-04T09:35:17;101695.91;;;38.47;9.81
13612;BME280;6877;51.436;6.774;2023-06-04T09:37:54;101702.44;;;38.98;9.94
13612;BME280;6877;51.436;6.774;2023-06-04T09:40:22;101695.09;;;37.94;10.25
13612;BME280;6877;51.436;6.774;2023-06-04T09:42:49;101714.66;;;36.98;9.84
13612;BME280;6877;51.436;6.774;2023-06-04T09:45:31;101695.06;;;36.07;10.40
13612;BME280;6877;51.436;6.774;2023-06-04T09:47:58;101685.19;;;35.57;10.96
13612;BME280;6877;51.436;6.774;2023-06-04T09:50:26;101689.44;;;34.93;11.52
13612;BME280;6877;51.436;6.774;2023-06-04T09:52:54;101691.06;;;34.69;11.88
13612;BME280;6877;51.436;6.774;2023-06-04T09:55:20;101680.16;;;35.03;11.91
13612;BME280;6877;51.436;6.774;2023-06-04T09:57:53;101686.16;;;35.40;11.19
13612;BME280;6877;51.436;6.774;2023-06-04T10:00:22;101689.81;;;36.53;10.87
13612;BME280;6877;51.436;6.774;2023-06-04T10:03:01;101692.69;;;37.30;10.58
13612;BME280;6877;51.436;6.774;2023-06-04T10:05:32;101683.81;;;37.05;10.43
13612;BME280;6877;51.436;6.774;2023-06-04T10:08:03;101686.66;;;36.73;10.84
13612;BME280;6877;51.436;6.774;2023-06-04T10:10:39;101680.44;;;36.95;10.80
13612;BME280;6877;51.436;6.774;2023-06-04T10:13:09;101686.44;;;36.35;10.87
13612;BME280;6877;51.436;6.774;2023-06-04T10:15:42;101683.31;;;35.58;11.47
13612;BME280;6877;51.436;6.774;2023-06-04T10:18:10;101685.47;;;35.46;11.87
13612;BME280;6877;51.436;6.774;2023-06-04T10:20:42;101683.16;;;34.50;12.04
13612;BME280;6877;51.436;6.774;2023-06-04T10:23:14;101681.19;;;34.60;12.27
13612;BME280;6877;51.436;6.774;2023-06-04T10:25:50;101670.91;;;34.88;12.29
13612;BME280;6877;51.436;6.774;2023-06-04T10:28:21;101675.44;;;35.30;12.44
13612;BME280;6877;51.436;6.774;2023-06-04T10:30:49;101666.09;;;35.33;12.26
13612;BME280;6877;51.436;6.774;2023-06-04T10:33:18;101678.34;;;35.28;12.04
13612;BME280;6877;51.436;6.774;2023-06-04T10:35:46;101680.78;;;34.97;11.88
13612;BME280;6877;51.436;6.774;2023-06-04T10:38:13;101674.66;;;34.87;11.82
13612;BME280;6877;51.436;6.774;2023-06-04T10:40:40;101672.50;;;34.56;10.84
13612;BME280;6877;51.436;6.774;2023-06-04T10:43:11;101666.63;;;34.43;11.50
13612;BME280;6877;51.436;6.774;2023-06-04T10:45:38;101668.81;;;34.05;11.99
13612;BME280;6877;51.436;6.774;2023-06-04T10:48:06;101671.34;;;34.67;11.33
13612;BME280;6877;51.436;6.774;2023-06-04T10:50:34;101671.94;;;34.95;11.06
13612;BME280;6877;51.436;6.774;2023-06-04T10:53:06;101658.28;;;35.70;11.08
13612;BME280;6877;51.436;6.774;2023-06-04T10:55:43;101670.84;;;36.20;10.70
13612;BME280;6877;51.436;6.774;2023-06-04T10:58:10;101653.00;;;34.69;11.48
13612;BME280;6877;51.436;6.774;2023-06-04T11:00:40;101663.56;;;34.80;11.89
13612;BME280;6877;51.436;6.774;2023-06-04T11:03:10;101664.72;;;35.37;11.24
13612;BME280;6877;51.436;6.774;2023-06-04T11:05:38;101665.78;;;35.44;11.66
13612;BME280;6877;51.436;6.774;2023-06-04T11:08:05;101665.72;;;35.27;11.62
13612;BME280;6877;51.436;6.774;2023-06-04T11:10:34;101660.22;;;34.95;11.88
13612;BME280;6877;51.436;6.774;2023-06-04T11:13:02;101665.03;;;34.32;11.64
13612;BME280;6877;51.436;6.774;2023-06-04T11:15:45;101664.72;;;32.66;13.26
13612;BME280;6877;51.436;6.774;2023-06-04T11:18:14;101642.28;;;31.80;12.89
13612;BME280;6877;51.436;6.774;2023-06-04T11:20:41;101642.34;;;31.41;13.79
13612;BME280;6877;51.436;6.774;2023-06-04T11:23:12;101642.41;;;31.98;13.73
13612;BME280;6877;51.436;6.774;2023-06-04T11:25:39;101647.28;;;31.94;13.65
13612;BME280;6877;51.436;6.774;2023-06-04T11:28:17;101644.13;;;31.11;14.25
13612;BME280;6877;51.436;6.774;2023-06-04T11:30:55;101637.72;;;30.01;15.16
13612;BME280;6877;51.436;6.774;2023-06-04T11:33:22;101628.91;;;29.99;15.32
13612;BME280;6877;51.436;6.774;2023-06-04T11:35:53;101632.53;;;30.30;14.53
13612;BME280;6877;51.436;6.774;2023-06-04T11:38:20;101631.41;;;29.91;15.73
13612;BME280;6877;51.436;6.774;2023-06-04T11:40:57;101625.03;;;28.40;17.11
13612;BME280;6877;51.436;6.774;2023-06-04T11:43:24;101627.53;;;27.86;18.41
13612;BME280;6877;51.436;6.774;2023-06-04T11:45:56;101619.47;;;27.26;18.26
13612;BME280;6877;51.436;6.774;2023-06-04T11:48:23;101624.63;;;26.69;18.89
13612;BME280;6877;51.436;6.774;2023-06-04T11:50:49;101618.88;;;26.11;20.10
13612;BME280;6877;51.436;6.774;2023-06-04T11:53:16;101616.31;;;25.84;20.21
13612;BME280;6877;51.436;6.774;2023-06-04T11:55:48;101613.53;;;25.98;19.97
13612;BME280;6877;51.436;6.774;2023-06-04T11:58:14;101615.19;;;25.74;20.09
13612;BME280;6877;51.436;6.774;2023-06-04T12:00:42;101614.25;;;25.35;20.52
13612;BME280;6877;51.436;6.774;2023-06-04T12:03:08;101609.47;;;25.13;20.67
13612;BME280;6877;51.436;6.774;2023-06-04T12:05:35;101605.91;;;25.12;20.48
13612;BME280;6877;51.436;6.774;2023-06-04T12:08:05;101605.06;;;25.39;20.58
13612;BME280;6877;51.436;6.774;2023-06-04T12:10:39;101601.28;;;25.81;20.17
13612;BME280;6877;51.436;6.774;2023-06-04T12:13:07;101598.28;;;25.86;20.04
13612;BME280;6877;51.436;6.774;2023-06-04T12:15:38;101590.56;;;25.81;20.24
13612;BME280;6877;51.436;6.774;2023-06-04T12:18:05;101597.84;;;25.79;19.91
13612;BME280;6877;51.436;6.774;2023-06-04T12:20:37;101597.09;;;25.90;19.39
13612;BME280;6877;51.436;6.774;2023-06-04T12:23:05;101595.44;;;25.62;19.64
13612;BME280;6877;51.436;6.774;2023-06-04T12:25:33;101597.63;;;25.30;20.22
13612;BME280;6877;51.436;6.774;2023-06-04T12:28:05;101596.41;;;25.21;21.22
13612;BME280;6877;51.436;6.774;2023-06-04T12:30:39;101595.31;;;25.38;20.88
13612;BME280;6877;51.436;6.774;2023-06-04T12:33:11;101590.75;;;24.98;21.42
13612;BME280;6877;51.436;6.774;2023-06-04T12:35:38;101592.25;;;24.76;21.58
13612;BME280;6877;51.436;6.774;2023-06-04T12:38:04;101591.88;;;24.67;21.02
13612;BME280;6877;51.436;6.774;2023-06-04T12:40:31;101582.13;;;24.66;20.90
13612;BME280;6877;51.436;6.774;2023-06-04T12:42:58;101587.25;;;24.84;20.97
13612;BME280;6877;51.436;6.774;2023-06-04T12:45:24;101578.88;;;24.76;21.33
13612;BME280;6877;51.436;6.774;2023-06-04T12:47:51;101576.47;;;24.71;21.45
13612;BME280;6877;51.436;6.774;2023-06-04T12:50:22;101579.25;;;24.69;21.91
13612;BME280;6877;51.436;6.774;2023-06-04T12:52:49;101579.81;;;24.74;22.10
13612;BME280;6877;51.436;6.774;2023-06-04T12:55:16;101574.25;;;24.78;21.97
13612;BME280;6877;51.436;6.774;2023-06-04T12:57:42;101575.66;;;24.97;21.93
13612;BME280;6877;51.436;6.774;2023-06-04T13:00:11;101575.41;;;25.15;21.34
13612;BME280;6877;51.436;6.774;2023-06-04T13:02:37;101581.00;;;25.25;21.07
13612;BME280;6877;51.436;6.774;2023-06-04T13:05:04;101578.91;;;25.55;20.93
13612;BME280;6877;51.436;6.774;2023-06-04T13:07:30;101587.97;;;25.27;20.51
13612;BME280;6877;51.436;6.774;2023-06-04T13:09:57;101576.78;;;24.93;20.95
13612;BME280;6877;51.436;6.774;2023-06-04T13:12:23;101577.81;;;24.78;21.18